sensor_id;sensor_type;location;lat;lon;timestamp;P1;durP1;ratioP1;P2;durP2;ratioP2
27921;SDS011;15261;50.356;10.340;2022-10-28T06:08:13;15.75;;;14.25;;
27921;SDS011;15261;50.356;10.340;2022-10-28T06:10:39;13.52;;;12.32;;
27921;SDS011;15261;50.356;10.340;2022-10-28T06:13:05;20.65;;;13.52;;
27921;SDS011;15261;50.356;10.340;2022-10-28T06:18:54;15.25;;;13.65;;
27921;SDS011;15261;50.356;10.340;2022-10-28T06:21:20;16.08;;;14.45;;
27921;SDS011;15261;50.356;10.340;2022-10-28T06:23:56;19.83;;;17.92;;
27921;SDS011;15261;50.356;10.340;2022-10-28T06:26:21;16.42;;;14.73;;
27921;SDS011;15261;50.356;10.340;2022-10-28T06:28:47;17.10;;;14.02;;
27921;SDS011;15261;50.356;10.340;2022-10-28T06:31:12;19.30;;;15.57;;
27921;SDS011;15261;50.356;10.340;2022-10-28T06:33:38;16.25;;;14.70;;
27921;SDS011;15261;50.356;10.340;2022-10-28T06:36:03;19.58;;;17.67;;
27921;SDS011;15261;50.356;10.340;2022-10-28T06:38:29;24.10;;;19.67;;
27921;SDS011;15261;50.356;10.340;2022-10-28T06:40:58;25.80;;;21.50;;
27921;SDS011;15261;50.356;10.340;2022-10-28T06:43:23;24.85;;;21.90;;
27921;SDS011;15261;50.356;10.340;2022-10-28T06:45:49;24.17;;;20.40;;
27921;SDS011;15261;50.356;10.340;2022-10-28T06:48:19;26.55;;;19.15;;
27921;SDS011;15261;50.356;10.340;2022-10-28T06:50:44;21.52;;;19.23;;
27921;SDS011;15261;50.356;10.340;2022-10-28T06:53:10;21.33;;;16.75;;
27921;SDS011;15261;50.356;10.340;2022-10-28T06:55:36;20.70;;;16.67;;
27921;SDS011;15261;50.356;10.340;2022-10-28T06:58:01;17.42;;;14.80;;
27921;SDS011;15261;50.356;10.340;2022-10-28T07:00:28;18.52;;;14.30;;
27921;SDS011;15261;50.356;10.340;2022-10-28T07:02:55;16.73;;;14.40;;
27921;SDS011;15261;50.356;10.340;2022-10-28T07:05:22;16.48;;;14.70;;
27921;SDS011;15261;50.356;10.340;2022-10-28T07:07:49;16.58;;;14.88;;
27921;SDS011;15261;50.356;10.340;2022-10-28T07:10:14;17.40;;;15.45;;
27921;SDS011;15261;50.356;10.340;2022-10-28T07:12:40;16.27;;;14.75;;
27921;SDS011;15261;50.356;10.340;2022-10-28T07:15:06;15.63;;;14.05;;
27921;SDS011;15261;50.356;10.340;2022-10-28T07:17:32;16.95;;;15.00;;
27921;SDS011;15261;50.356;10.340;2022-10-28T07:19:57;16.50;;;14.77;;
27921;SDS011;15261;50.356;10.340;2022-10-28T07:22:23;17.10;;;14.30;;
27921;SDS011;15261;50.356;10.340;2022-10-28T07:24:49;15.57;;;13.80;;
27921;SDS011;15261;50.356;10.340;2022-10-28T07:27:14;14.25;;;12.80;;
27921;SDS011;15261;50.356;10.340;2022-10-28T07:29:40;15.73;;;12.98;;
27921;SDS011;15261;50.356;10.340;2022-10-28T07:32:05;15.65;;;13.02;;
27921;SDS011;15261;50.356;10.340;2022-10-28T07:34:31;17.85;;;16.13;;
27921;SDS011;15261;50.356;10.340;2022-10-28T07:36:56;15.95;;;13.52;;
27921;SDS011;15261;50.356;10.340;2022-10-28T07:39:22;14.35;;;13.05;;
27921;SDS011;15261;50.356;10.340;2022-10-28T07:41:48;16.95;;;15.05;;
27921;SDS011;15261;50.356;10.340;2022-10-28T07:44:13;18.23;;;15.60;;
27921;SDS011;15261;50.356;10.340;2022-10-28T07:46:39;20.27;;;15.68;;
27921;SDS011;15261;50.356;10.340;2022-10-28T07:49:05;14.82;;;13.05;;
27921;SDS011;15261;50.356;10.340;2022-10-28T07:51:30;14.48;;;13.10;;
27921;SDS011;15261;50.356;10.340;2022-10-28T07:53:56;18.27;;;16.38;;
27921;SDS011;15261;50.356;10.340;2022-10-28T07:56:22;16.38;;;14.63;;
27921;SDS011;15261;50.356;10.340;2022-10-28T07:58:48;14.55;;;13.05;;
27921;SDS011;15261;50.356;10.340;2022-10-28T08:01:15;16.45;;;13.77;;
27921;SDS011;15261;50.356;10.340;2022-10-28T08:03:42;16.02;;;14.35;;
27921;SDS011;15261;50.356;10.340;2022-10-28T08:06:12;14.90;;;12.70;;
27921;SDS011;15261;50.356;10.340;2022-10-28T08:08:42;19.20;;;17.27;;
27921;SDS011;15261;50.356;10.340;2022-10-28T08:13:38;15.23;;;13.40;;
27921;SDS011;15261;50.356;10.340;2022-10-28T08:16:04;14.25;;;12.85;;
27921;SDS011;15261;50.356;10.340;2022-10-28T08:18:29;15.65;;;13.13;;
27921;SDS011;15261;50.356;10.340;2022-10-28T08:20:57;15.48;;;12.00;;
27921;SDS011;15261;50.356;10.340;2022-10-28T08:23:24;12.02;;;10.75;;
27921;SDS011;15261;50.356;10.340;2022-10-28T08:25:50;12.80;;;11.50;;
27921;SDS011;15261;50.356;10.340;2022-10-28T08:28:16;14.48;;;11.85;;
27921;SDS011;15261;50.356;10.340;2022-10-28T08:30:42;12.63;;;10.98;;
27921;SDS011;15261;50.356;10.340;2022-10-28T08:33:08;13.95;;;11.45;;
27921;SDS011;15261;50.356;10.340;2022-10-28T08:35:34;12.88;;;11.63;;
27921;SDS011;15261;50.356;10.340;2022-10-28T08:38:00;12.93;;;10.55;;
27921;SDS011;15261;50.356;10.340;2022-10-28T08:40:31;11.27;;;9.88;;
27921;SDS011;15261;50.356;10.340;2022-10-28T08:49:09;11.48;;;9.98;;
27921;SDS011;15261;50.356;10.340;2022-10-28T08:51:40;11.93;;;9.93;;
27921;SDS011;15261;50.356;10.340;2022-10-28T08:54:38;11.60;;;9.13;;
27921;SDS011;15261;50.356;10.340;2022-10-28T08:57:08;16.80;;;11.57;;
27921;SDS011;15261;50.356;10.340;2022-10-28T08:59:40;12.48;;;10.60;;
27921;SDS011;15261;50.356;10.340;2022-10-28T09:04:48;15.40;;;10.00;;
27921;SDS011;15261;50.356;10.340;2022-10-28T09:07:34;10.20;;;8.88;;
27921;SDS011;15261;50.356;10.340;2022-10-28T09:10:02;12.48;;;8.63;;
27921;SDS011;15261;50.356;10.340;2022-10-28T09:12:38;14.52;;;8.60;;
27921;SDS011;15261;50.356;10.340;2022-10-28T09:18:13;14.85;;;9.13;;
27921;SDS011;15261;50.356;10.340;2022-10-28T09:28:42;11.38;;;9.25;;
27921;SDS011;15261;50.356;10.340;2022-10-28T09:31:34;12.27;;;8.57;;
27921;SDS011;15261;50.356;10.340;2022-10-28T09:34:14;14.38;;;8.82;;
27921;SDS011;15261;50.356;10.340;2022-10-28T09:36:42;10.40;;;7.80;;
27921;SDS011;15261;50.356;10.340;2022-10-28T09:39:17;16.50;;;7.82;;
27921;SDS011;15261;50.356;10.340;2022-10-28T09:41:46;10.27;;;7.00;;
27921;SDS011;15261;50.356;10.340;2022-10-28T09:47:21;9.95;;;6.72;;
27921;SDS011;15261;50.356;10.340;2022-10-28T09:49:52;10.85;;;6.93;;
27921;SDS011;15261;50.356;10.340;2022-10-28T09:52:25;10.10;;;6.65;;
27921;SDS011;15261;50.356;10.340;2022-10-28T09:54:54;9.30;;;7.07;;
27921;SDS011;15261;50.356;10.340;2022-10-28T09:57:21;10.57;;;7.53;;
27921;SDS011;15261;50.356;10.340;2022-10-28T09:59:54;11.55;;;7.03;;
27921;SDS011;15261;50.356;10.340;2022-10-28T10:02:25;11.82;;;7.05;;
27921;SDS011;15261;50.356;10.340;2022-10-28T10:04:56;8.48;;;6.43;;
27921;SDS011;15261;50.356;10.340;2022-10-28T10:07:25;11.57;;;7.22;;
27921;SDS011;15261;50.356;10.340;2022-10-28T10:09:52;8.02;;;6.15;;
27921;SDS011;15261;50.356;10.340;2022-10-28T10:12:17;10.25;;;6.65;;
27921;SDS011;15261;50.356;10.340;2022-10-28T10:14:44;12.10;;;6.65;;
27921;SDS011;15261;50.356;10.340;2022-10-28T10:17:14;9.30;;;6.82;;
27921;SDS011;15261;50.356;10.340;2022-10-28T10:19:59;7.43;;;6.60;;
27921;SDS011;15261;50.356;10.340;2022-10-28T10:22:32;10.07;;;6.55;;
27921;SDS011;15261;50.356;10.340;2022-10-28T10:25:00;8.85;;;6.18;;
27921;SDS011;15261;50.356;10.340;2022-10-28T10:31:03;10.68;;;6.82;;
27921;SDS011;15261;50.356;10.340;2022-10-28T10:33:32;11.63;;;6.63;;
27921;SDS011;15261;50.356;10.340;2022-10-28T10:36:02;9.65;;;6.55;;
27921;SDS011;15261;50.356;10.340;2022-10-28T10:38:28;12.68;;;6.70;;
27921;SDS011;15261;50.356;10.340;2022-10-28T10:40:55;10.65;;;6.30;;
27921;SDS011;15261;50.356;10.340;2022-10-28T10:48:37;8.38;;;5.97;;
27921;SDS011;15261;50.356;10.340;2022-10-28T10:51:04;10.55;;;6.32;;
27921;SDS011;15261;50.356;10.340;2022-10-28T10:53:44;11.20;;;6.72;;
27921;SDS011;15261;50.356;10.340;2022-10-28T10:56:12;6.60;;;5.90;;
27921;SDS011;15261;50.356;10.340;2022-10-28T10:58:47;8.15;;;5.38;;
27921;SDS011;15261;50.356;10.340;2022-10-28T11:01:20;12.05;;;6.68;;
27921;SDS011;15261;50.356;10.340;2022-10-28T11:03:56;9.73;;;6.20;;
27921;SDS011;15261;50.356;10.340;2022-10-28T11:06:31;8.88;;;6.68;;
27921;SDS011;15261;50.356;10.340;2022-10-28T11:09:02;7.80;;;6.00;;
27921;SDS011;15261;50.356;10.340;2022-10-28T11:11:35;6.38;;;5.40;;
27921;SDS011;15261;50.356;10.340;2022-10-28T11:14:44;9.20;;;5.75;;
27921;SDS011;15261;50.356;10.340;2022-10-28T11:19:33;9.45;;;6.18;;
27921;SDS011;15261;50.356;10.340;2022-10-28T11:24:57;10.85;;;5.85;;
27921;SDS011;15261;50.356;10.340;2022-10-28T11:33:43;17.80;;;8.38;;
27921;SDS011;15261;50.356;10.340;2022-10-28T11:36:26;16.35;;;7.82;;
27921;SDS011;15261;50.356;10.340;2022-10-28T11:39:32;10.15;;;7.00;;
27921;SDS011;15261;50.356;10.340;2022-10-28T11:42:14;17.52;;;7.30;;
27921;SDS011;15261;50.356;10.340;2022-10-28T11:44:51;17.95;;;9.07;;
27921;SDS011;15261;50.356;10.340;2022-10-28T11:47:38;13.52;;;8.35;;
27921;SDS011;15261;50.356;10.340;2022-10-28T11:50:13;20.75;;;11.15;;
27921;SDS011;15261;50.356;10.340;2022-10-28T11:56:00;15.70;;;6.30;;
27921;SDS011;15261;50.356;10.340;2022-10-28T12:06:37;25.38;;;6.97;;
27921;SDS011;15261;50.356;10.340;2022-10-28T12:15:13;13.23;;;5.22;;
27921;SDS011;15261;50.356;10.340;2022-10-28T12:23:38;11.57;;;5.15;;
27921;SDS011;15261;50.356;10.340;2022-10-28T12:26:06;17.77;;;7.38;;
27921;SDS011;15261;50.356;10.340;2022-10-28T12:28:44;21.52;;;6.90;;
27921;SDS011;15261;50.356;10.340;2022-10-28T12:31:16;12.38;;;5.55;;
27921;SDS011;15261;50.356;10.340;2022-10-28T12:33:49;17.92;;;5.40;;
27921;SDS011;15261;50.356;10.340;2022-10-28T12:36:27;19.98;;;5.57;;
27921;SDS011;15261;50.356;10.340;2022-10-28T12:39:04;27.23;;;5.43;;
27921;SDS011;15261;50.356;10.340;2022-10-28T12:44:21;16.02;;;5.40;;
27921;SDS011;15261;50.356;10.340;2022-10-28T12:49:50;12.05;;;5.07;;
27921;SDS011;15261;50.356;10.340;2022-10-28T12:52:21;21.75;;;5.97;;
27921;SDS011;15261;50.356;10.340;2022-10-28T12:55:02;18.45;;;4.97;;
27921;SDS011;15261;50.356;10.340;2022-10-28T12:57:51;12.55;;;5.22;;
27921;SDS011;15261;50.356;10.340;2022-10-28T13:00:25;14.02;;;4.95;;
27921;SDS011;15261;50.356;10.340;2022-10-28T13:03:00;9.63;;;4.88;;
27921;SDS011;15261;50.356;10.340;2022-10-28T13:05:30;14.15;;;5.18;;
27921;SDS011;15261;50.356;10.340;2022-10-28T13:28:11;12.85;;;5.07;;
27921;SDS011;15261;50.356;10.340;2022-10-28T13:30:50;10.38;;;4.70;;
27921;SDS011;15261;50.356;10.340;2022-10-28T13:33:36;11.68;;;4.30;;
27921;SDS011;15261;50.356;10.340;2022-10-28T13:36:10;10.50;;;4.70;;
27921;SDS011;15261;50.356;10.340;2022-10-28T13:38:40;13.00;;;4.50;;
27921;SDS011;15261;50.356;10.340;2022-10-28T13:41:07;19.05;;;5.40;;
27921;SDS011;15261;50.356;10.340;2022-10-28T13:46:57;18.13;;;4.72;;
27921;SDS011;15261;50.356;10.340;2022-10-28T13:59:59;7.95;;;5.57;;
27921;SDS011;15261;50.356;10.340;2022-10-28T14:05:07;14.00;;;5.53;;
27921;SDS011;15261;50.356;10.340;2022-10-28T14:07:35;8.80;;;6.05;;
27921;SDS011;15261;50.356;10.340;2022-10-28T14:10:30;11.20;;;6.28;;
27921;SDS011;15261;50.356;10.340;2022-10-28T14:13:16;11.30;;;6.05;;
27921;SDS011;15261;50.356;10.340;2022-10-28T14:15:44;15.77;;;6.32;;
27921;SDS011;15261;50.356;10.340;2022-10-28T14:20:41;11.50;;;6.43;;
27921;SDS011;15261;50.356;10.340;2022-10-28T14:33:43;28.45;;;7.80;;
27921;SDS011;15261;50.356;10.340;2022-10-28T14:36:53;26.55;;;8.43;;
27921;SDS011;15261;50.356;10.340;2022-10-28T14:39:39;12.23;;;7.40;;
27921;SDS011;15261;50.356;10.340;2022-10-28T14:45:05;16.45;;;7.25;;
27921;SDS011;15261;50.356;10.340;2022-10-28T14:53:31;15.75;;;6.95;;
27921;SDS011;15261;50.356;10.340;2022-10-28T14:55:59;17.08;;;7.80;;
27921;SDS011;15261;50.356;10.340;2022-10-28T14:58:29;32.80;;;7.85;;
27921;SDS011;15261;50.356;10.340;2022-10-28T15:04:03;32.08;;;8.27;;
27921;SDS011;15261;50.356;10.340;2022-10-28T15:06:38;44.25;;;8.68;;
27921;SDS011;15261;50.356;10.340;2022-10-28T15:11:48;31.33;;;8.57;;
27921;SDS011;15261;50.356;10.340;2022-10-28T15:14:24;16.75;;;7.35;;
27921;SDS011;15261;50.356;10.340;2022-10-28T15:16:52;26.77;;;8.10;;
27921;SDS011;15261;50.356;10.340;2022-10-28T15:19:19;24.83;;;8.13;;
27921;SDS011;15261;50.356;10.340;2022-10-28T15:22:03;21.23;;;7.95;;
27921;SDS011;15261;50.356;10.340;2022-10-28T15:24:31;35.55;;;19.38;;
27921;SDS011;15261;50.356;10.340;2022-10-28T15:26:57;16.23;;;10.45;;
27921;SDS011;15261;50.356;10.340;2022-10-28T15:29:23;14.25;;;8.40;;
27921;SDS011;15261;50.356;10.340;2022-10-28T15:34:54;14.93;;;8.95;;
27921;SDS011;15261;50.356;10.340;2022-10-28T15:37:21;14.65;;;8.02;;
27921;SDS011;15261;50.356;10.340;2022-10-28T15:39:49;16.95;;;7.78;;
27921;SDS011;15261;50.356;10.340;2022-10-28T15:45:10;19.73;;;8.90;;
27921;SDS011;15261;50.356;10.340;2022-10-28T15:53:43;53.25;;;31.58;;
27921;SDS011;15261;50.356;10.340;2022-10-28T15:58:38;19.50;;;10.98;;
27921;SDS011;15261;50.356;10.340;2022-10-28T16:01:25;19.38;;;8.93;;
27921;SDS011;15261;50.356;10.340;2022-10-28T16:03:51;14.77;;;7.80;;
27921;SDS011;15261;50.356;10.340;2022-10-28T16:06:30;11.90;;;7.63;;
27921;SDS011;15261;50.356;10.340;2022-10-28T16:09:06;45.78;;;28.30;;
27921;SDS011;15261;50.356;10.340;2022-10-28T16:11:39;181.70;;;100.35;;
27921;SDS011;15261;50.356;10.340;2022-10-28T16:14:53;136.60;;;78.28;;
27921;SDS011;15261;50.356;10.340;2022-10-28T16:20:21;41.25;;;23.40;;
27921;SDS011;15261;50.356;10.340;2022-10-28T16:22:51;35.47;;;20.98;;
27921;SDS011;15261;50.356;10.340;2022-10-28T16:25:18;40.53;;;25.35;;
27921;SDS011;15261;50.356;10.340;2022-10-28T16:27:46;57.03;;;37.67;;
27921;SDS011;15261;50.356;10.340;2022-10-28T16:30:15;48.35;;;33.30;;
27921;SDS011;15261;50.356;10.340;2022-10-28T16:35:13;57.40;;;31.70;;
27921;SDS011;15261;50.356;10.340;2022-10-28T16:40:11;51.10;;;29.83;;
27921;SDS011;15261;50.356;10.340;2022-10-28T16:42:37;47.47;;;29.58;;
27921;SDS011;15261;50.356;10.340;2022-10-28T16:45:05;50.20;;;30.50;;
27921;SDS011;15261;50.356;10.340;2022-10-28T16:47:42;36.47;;;21.25;;
27921;SDS011;15261;50.356;10.340;2022-10-28T16:53:21;26.48;;;10.48;;
27921;SDS011;15261;50.356;10.340;2022-10-28T16:55:46;20.10;;;9.55;;
27921;SDS011;15261;50.356;10.340;2022-10-28T16:58:13;18.73;;;8.80;;
27921;SDS011;15261;50.356;10.340;2022-10-28T17:00:39;14.55;;;8.00;;
27921;SDS011;15261;50.356;10.340;2022-10-28T17:03:20;16.77;;;7.72;;
27921;SDS011;15261;50.356;10.340;2022-10-28T17:05:46;18.35;;;10.32;;
27921;SDS011;15261;50.356;10.340;2022-10-28T17:08:12;25.83;;;17.25;;
27921;SDS011;15261;50.356;10.340;2022-10-28T17:10:38;27.58;;;14.55;;
27921;SDS011;15261;50.356;10.340;2022-10-28T17:22:03;25.08;;;10.82;;
27921;SDS011;15261;50.356;10.340;2022-10-28T17:24:30;22.50;;;10.63;;
27921;SDS011;15261;50.356;10.340;2022-10-28T17:32:08;19.42;;;8.75;;
27921;SDS011;15261;50.356;10.340;2022-10-28T17:34:34;16.63;;;8.98;;
27921;SDS011;15261;50.356;10.340;2022-10-28T17:37:00;20.77;;;8.95;;
27921;SDS011;15261;50.356;10.340;2022-10-28T17:39:25;10.40;;;8.52;;
27921;SDS011;15261;50.356;10.340;2022-10-28T17:41:58;15.52;;;10.48;;
27921;SDS011;15261;50.356;10.340;2022-10-28T17:44:25;14.82;;;8.57;;
27921;SDS011;15261;50.356;10.340;2022-10-28T17:46:50;14.75;;;7.97;;
27921;SDS011;15261;50.356;10.340;2022-10-28T17:49:16;16.55;;;7.88;;
27921;SDS011;15261;50.356;10.340;2022-10-28T17:51:43;18.38;;;8.00;;
27921;SDS011;15261;50.356;10.340;2022-10-28T17:54:09;15.10;;;7.95;;
27921;SDS011;15261;50.356;10.340;2022-10-28T17:56:35;13.20;;;7.82;;
27921;SDS011;15261;50.356;10.340;2022-10-28T17:59:01;18.33;;;8.18;;
27921;SDS011;15261;50.356;10.340;2022-10-28T18:01:29;15.40;;;8.15;;
27921;SDS011;15261;50.356;10.340;2022-10-28T18:06:31;16.00;;;8.60;;
27921;SDS011;15261;50.356;10.340;2022-10-28T18:08:58;17.45;;;7.88;;
27921;SDS011;15261;50.356;10.340;2022-10-28T18:11:25;12.38;;;8.30;;
27921;SDS011;15261;50.356;10.340;2022-10-28T18:16:40;13.82;;;8.90;;
27921;SDS011;15261;50.356;10.340;2022-10-28T18:19:15;18.08;;;10.32;;
27921;SDS011;15261;50.356;10.340;2022-10-28T18:21:40;11.43;;;8.25;;
27921;SDS011;15261;50.356;10.340;2022-10-28T18:24:08;17.45;;;7.88;;
27921;SDS011;15261;50.356;10.340;2022-10-28T18:26:39;11.70;;;8.38;;
27921;SDS011;15261;50.356;10.340;2022-10-28T18:29:06;15.82;;;8.77;;
27921;SDS011;15261;50.356;10.340;2022-10-28T18:31:36;17.00;;;10.40;;
27921;SDS011;15261;50.356;10.340;2022-10-28T18:34:06;17.17;;;9.50;;
27921;SDS011;15261;50.356;10.340;2022-10-28T18:36:33;17.45;;;8.80;;
27921;SDS011;15261;50.356;10.340;2022-10-28T18:38:59;13.32;;;7.28;;
27921;SDS011;15261;50.356;10.340;2022-10-28T18:41:32;13.80;;;6.75;;
27921;SDS011;15261;50.356;10.340;2022-10-28T18:44:02;12.05;;;7.32;;
27921;SDS011;15261;50.356;10.340;2022-10-28T18:46:38;15.85;;;7.35;;
27921;SDS011;15261;50.356;10.340;2022-10-28T18:49:04;15.70;;;8.00;;
27921;SDS011;15261;50.356;10.340;2022-10-28T18:54:31;13.60;;;7.43;;
27921;SDS011;15261;50.356;10.340;2022-10-28T18:56:57;14.10;;;6.80;;
27921;SDS011;15261;50.356;10.340;2022-10-28T18:59:23;15.60;;;7.20;;
27921;SDS011;15261;50.356;10.340;2022-10-28T19:01:48;17.08;;;6.68;;
27921;SDS011;15261;50.356;10.340;2022-10-28T19:07:36;14.38;;;6.82;;
27921;SDS011;15261;50.356;10.340;2022-10-28T19:13:11;12.90;;;6.80;;
27921;SDS011;15261;50.356;10.340;2022-10-28T19:18:23;10.88;;;7.28;;
27921;SDS011;15261;50.356;10.340;2022-10-28T19:23:55;13.55;;;8.75;;
27921;SDS011;15261;50.356;10.340;2022-10-28T19:26:21;17.80;;;8.20;;
27921;SDS011;15261;50.356;10.340;2022-10-28T19:28:56;15.57;;;8.00;;
27921;SDS011;15261;50.356;10.340;2022-10-28T19:31:23;12.68;;;7.13;;
27921;SDS011;15261;50.356;10.340;2022-10-28T19:33:50;13.43;;;7.40;;
27921;SDS011;15261;50.356;10.340;2022-10-28T19:36:24;12.93;;;6.70;;
27921;SDS011;15261;50.356;10.340;2022-10-28T19:38:51;14.55;;;6.80;;
27921;SDS011;15261;50.356;10.340;2022-10-28T19:41:19;12.82;;;6.75;;
27921;SDS011;15261;50.356;10.340;2022-10-28T19:43:46;9.65;;;6.80;;
27921;SDS011;15261;50.356;10.340;2022-10-28T19:46:13;12.32;;;7.18;;
27921;SDS011;15261;50.356;10.340;2022-10-28T19:52:05;13.20;;;6.80;;
27921;SDS011;15261;50.356;10.340;2022-10-28T19:54:30;12.57;;;7.32;;
27921;SDS011;15261;50.356;10.340;2022-10-28T19:56:57;14.57;;;7.05;;
27921;SDS011;15261;50.356;10.340;2022-10-28T20:02:32;16.90;;;7.00;;
27921;SDS011;15261;50.356;10.340;2022-10-28T20:04:57;12.90;;;6.97;;
27921;SDS011;15261;50.356;10.340;2022-10-28T20:07:23;16.00;;;7.50;;
27921;SDS011;15261;50.356;10.340;2022-10-28T20:09:48;21.90;;;11.00;;
27921;SDS011;15261;50.356;10.340;2022-10-28T20:12:14;36.95;;;21.27;;
27921;SDS011;15261;50.356;10.340;2022-10-28T20:14:40;70.03;;;30.83;;
27921;SDS011;15261;50.356;10.340;2022-10-28T20:17:23;33.88;;;15.43;;
27921;SDS011;15261;50.356;10.340;2022-10-28T20:19:48;38.90;;;17.70;;
27921;SDS011;15261;50.356;10.340;2022-10-28T20:22:14;153.52;;;56.17;;
27921;SDS011;15261;50.356;10.340;2022-10-28T20:24:41;106.78;;;47.55;;
27921;SDS011;15261;50.356;10.340;2022-10-28T20:27:06;104.05;;;87.05;;
27921;SDS011;15261;50.356;10.340;2022-10-28T20:29:32;28.27;;;19.20;;
27921;SDS011;15261;50.356;10.340;2022-10-28T20:31:57;34.05;;;20.23;;
27921;SDS011;15261;50.356;10.340;2022-10-28T20:34:23;31.92;;;19.95;;
27921;SDS011;15261;50.356;10.340;2022-10-28T20:36:48;36.80;;;20.02;;
27921;SDS011;15261;50.356;10.340;2022-10-28T20:39:16;32.35;;;21.00;;
27921;SDS011;15261;50.356;10.340;2022-10-28T20:41:43;34.20;;;19.55;;
27921;SDS011;15261;50.356;10.340;2022-10-28T20:44:10;21.98;;;13.15;;
27921;SDS011;15261;50.356;10.340;2022-10-28T20:46:36;17.77;;;10.90;;
27921;SDS011;15261;50.356;10.340;2022-10-28T20:49:03;21.63;;;10.38;;
27921;SDS011;15261;50.356;10.340;2022-10-28T20:51:30;19.23;;;9.35;;
27921;SDS011;15261;50.356;10.340;2022-10-28T20:57:16;13.88;;;8.13;;
27921;SDS011;15261;50.356;10.340;2022-10-28T20:59:41;10.73;;;8.50;;
27921;SDS011;15261;50.356;10.340;2022-10-28T21:02:07;12.32;;;7.93;;
27921;SDS011;15261;50.356;10.340;2022-10-28T21:04:33;13.45;;;7.90;;
27921;SDS011;15261;50.356;10.340;2022-10-28T21:06:59;11.75;;;8.45;;
27921;SDS011;15261;50.356;10.340;2022-10-28T21:09:24;13.55;;;6.38;;
27921;SDS011;15261;50.356;10.340;2022-10-28T21:11:50;10.20;;;6.95;;
27921;SDS011;15261;50.356;10.340;2022-10-28T21:14:15;11.30;;;6.28;;
27921;SDS011;15261;50.356;10.340;2022-10-28T21:16:41;12.02;;;6.43;;
27921;SDS011;15261;50.356;10.340;2022-10-28T21:19:06;12.38;;;7.30;;
27921;SDS011;15261;50.356;10.340;2022-10-28T21:21:32;11.00;;;6.65;;
27921;SDS011;15261;50.356;10.340;2022-10-28T21:23:57;9.65;;;6.35;;
27921;SDS011;15261;50.356;10.340;2022-10-28T21:26:23;11.63;;;6.72;;
27921;SDS011;15261;50.356;10.340;2022-10-28T21:28:51;9.52;;;5.60;;
27921;SDS011;15261;50.356;10.340;2022-10-28T21:31:17;14.27;;;7.07;;
27921;SDS011;15261;50.356;10.340;2022-10-28T21:33:43;21.73;;;7.90;;
27921;SDS011;15261;50.356;10.340;2022-10-28T21:38:58;15.25;;;7.43;;
27921;SDS011;15261;50.356;10.340;2022-10-28T21:41:23;10.15;;;6.53;;
27921;SDS011;15261;50.356;10.340;2022-10-28T21:46:47;12.27;;;7.57;;
27921;SDS011;15261;50.356;10.340;2022-10-28T21:49:12;12.05;;;7.38;;
27921;SDS011;15261;50.356;10.340;2022-10-28T21:51:38;11.50;;;7.50;;
27921;SDS011;15261;50.356;10.340;2022-10-28T21:54:04;10.63;;;7.90;;
27921;SDS011;15261;50.356;10.340;2022-10-28T21:56:30;11.57;;;6.95;;
27921;SDS011;15261;50.356;10.340;2022-10-28T21:58:55;9.35;;;6.78;;
27921;SDS011;15261;50.356;10.340;2022-10-28T22:04:32;7.07;;;6.38;;
27921;SDS011;15261;50.356;10.340;2022-10-28T22:06:58;8.30;;;6.55;;
27921;SDS011;15261;50.356;10.340;2022-10-28T22:09:23;9.98;;;6.82;;
27921;SDS011;15261;50.356;10.340;2022-10-28T22:14:25;10.18;;;6.65;;
27921;SDS011;15261;50.356;10.340;2022-10-28T22:16:51;7.43;;;6.65;;
27921;SDS011;15261;50.356;10.340;2022-10-28T22:21:58;10.55;;;6.72;;
27921;SDS011;15261;50.356;10.340;2022-10-28T22:24:27;10.63;;;7.10;;
27921;SDS011;15261;50.356;10.340;2022-10-28T22:29:47;7.03;;;6.28;;
27921;SDS011;15261;50.356;10.340;2022-10-28T22:32:17;10.95;;;6.70;;
27921;SDS011;15261;50.356;10.340;2022-10-28T22:34:43;10.82;;;6.43;;
27921;SDS011;15261;50.356;10.340;2022-10-28T22:37:08;14.10;;;6.85;;
27921;SDS011;15261;50.356;10.340;2022-10-28T22:39:34;8.45;;;6.68;;
27921;SDS011;15261;50.356;10.340;2022-10-28T22:41:59;14.27;;;6.85;;
27921;SDS011;15261;50.356;10.340;2022-10-28T22:44:26;11.80;;;6.80;;
27921;SDS011;15261;50.356;10.340;2022-10-28T22:46:52;13.98;;;6.68;;
27921;SDS011;15261;50.356;10.340;2022-10-28T22:49:17;14.57;;;7.47;;
27921;SDS011;15261;50.356;10.340;2022-10-28T22:51:46;14.35;;;6.93;;
27921;SDS011;15261;50.356;10.340;2022-10-28T22:54:12;11.95;;;7.30;;
27921;SDS011;15261;50.356;10.340;2022-10-28T22:56:37;11.35;;;6.68;;
27921;SDS011;15261;50.356;10.340;2022-10-28T22:59:04;12.43;;;6.63;;
27921;SDS011;15261;50.356;10.340;2022-10-28T23:01:29;10.10;;;6.20;;
27921;SDS011;15261;50.356;10.340;2022-10-28T23:03:55;9.90;;;6.65;;
27921;SDS011;15261;50.356;10.340;2022-10-28T23:06:22;10.80;;;5.63;;
27921;SDS011;15261;50.356;10.340;2022-10-28T23:08:49;16.38;;;7.10;;
27921;SDS011;15261;50.356;10.340;2022-10-28T23:11:15;13.05;;;6.82;;
27921;SDS011;15261;50.356;10.340;2022-10-28T23:19:17;12.07;;;7.30;;
27921;SDS011;15261;50.356;10.340;2022-10-28T23:21:43;8.27;;;7.30;;
27921;SDS011;15261;50.356;10.340;2022-10-28T23:24:08;10.18;;;7.28;;
27921;SDS011;15261;50.356;10.340;2022-10-28T23:26:35;9.85;;;7.63;;
27921;SDS011;15261;50.356;10.340;2022-10-28T23:29:00;9.20;;;7.10;;
27921;SDS011;15261;50.356;10.340;2022-10-28T23:31:26;9.10;;;7.22;;
27921;SDS011;15261;50.356;10.340;2022-10-28T23:33:52;8.80;;;7.35;;
27921;SDS011;15261;50.356;10.340;2022-10-28T23:36:19;10.32;;;7.88;;
27921;SDS011;15261;50.356;10.340;2022-10-28T23:38:45;10.48;;;7.82;;
27921;SDS011;15261;50.356;10.340;2022-10-28T23:41:12;11.73;;;7.68;;
27921;SDS011;15261;50.356;10.340;2022-10-28T23:43:42;12.48;;;8.13;;
27921;SDS011;15261;50.356;10.340;2022-10-28T23:46:08;12.10;;;7.40;;
27921;SDS011;15261;50.356;10.340;2022-10-28T23:48:34;9.52;;;7.20;;
27921;SDS011;15261;50.356;10.340;2022-10-28T23:51:00;11.38;;;8.05;;
27921;SDS011;15261;50.356;10.340;2022-10-28T23:53:25;11.00;;;7.13;;
27921;SDS011;15261;50.356;10.340;2022-10-28T23:55:51;10.88;;;7.43;;
27921;SDS011;15261;50.356;10.340;2022-10-28T23:58:17;11.43;;;7.75;;
